Data for 03/11/2006

Time Sea-Level Adjusted Pressure Absolute Pressure Temperature Relative Humidity Dew Point   
(mb) (inHg) (mb) (inHg) (C) (F) (%) (C) (F)
00:05 1004 29.65 834 24.63 -8.3 17 51 -16.9 1.6
00:10 1004 29.65 834 24.63 -8.2 17.3 51 -16.7 1.9
00:15 1004 29.65 834 24.63 -8.2 17.3 50 -16.9 1.6
00:20 1004 29.65 834 24.63 -7.9 17.7 49 -16.9 1.6
00:25 1004 29.65 834 24.63 -7.7 18.2 51 -16.2 2.9
00:30 1004 29.65 834 24.63 -7.8 18 51 -16.3 2.6
00:35 1004 29.65 834 24.63 -8.1 17.4 52 -16.4 2.5
00:40 1004 29.65 834 24.63 -8.3 17 51 -16.8 1.8
00:45 1005 29.68 834 24.63 -8.5 16.8 51 -17 1.4
00:50 1005 29.68 834 24.63 -8.5 16.7 48 -17.7 0.1
00:55 1005 29.68 834 24.63 -8.6 16.5 48 -17.8 -0
01:00 1005 29.68 834 24.63 -8.5 16.8 47 -17.9 -0.2
01:05 1005 29.68 834 24.63 -8.4 17 48 -17.4 0.6
01:10 1005 29.68 834 24.63 -8.6 16.6 49 -17.3 0.8
01:15 1005 29.68 834 24.63 -8.6 16.4 51 -17.1 1.2
01:20 1005 29.68 834 24.63 -8.5 16.7 51 -16.9 1.5
01:25 1005 29.68 834 24.63 -8.5 16.7 49 -17.3 0.9
01:30 1005 29.68 834 24.63 -8.5 16.8 49 -17.4 0.6
01:35 1005 29.68 834 24.63 -8.7 16.3 48 -17.9 -0.2
01:40 1005 29.68 834 24.63 -9 15.7 48 -18.3 -0.9
01:45 1005 29.68 834 24.63 -8.9 16 45 -18.7 -1.7
01:50 1005 29.68 834 24.63 -8.6 16.6 43 -19.1 -2.4
01:55 1005 29.68 834 24.63 -8.6 16.5 41 -19.5 -3.1
02:00 1005 29.68 834 24.63 -8.7 16.4 41 -19.6 -3.4
02:05 1005 29.68 834 24.63 -8.5 16.6 42 -19.3 -2.7
02:10 1005 29.68 834 24.63 -8.4 17 41 -19.3 -2.8
02:15 1005 29.68 834 24.63 -8.2 17.2 40 -19.6 -3.2
02:20 1005 29.68 834 24.63 -8 17.6 37 -20.2 -4.3
02:25 1005 29.68 834 24.63 -8.2 17.2 35 -21.1 -6
02:30 1005 29.68 834 24.63 -8.8 16.1 37 -21.1 -5.9
02:35 1005 29.68 834 24.63 -8.7 16.4 37 -20.9 -5.5
02:40 1005 29.68 834 24.63 -8.2 17.2 37 -20.6 -5
02:45 1005 29.68 834 24.63 -8.5 16.7 39 -20.1 -4.3
02:50 1005 29.68 834 24.63 -8.8 16.1 39 -20.5 -4.8
02:55 1005 29.68 834 24.63 -9.2 15.5 43 -19.7 -3.4
03:00 1005 29.68 834 24.63 -9.3 15.2 44 -19.5 -3.1
03:05 1005 29.68 834 24.63 -9.5 14.8 45 -19.4 -3
03:10 1005 29.68 834 24.63 -9.7 14.5 46 -19.3 -2.7
03:15 1005 29.68 834 24.63 -9.7 14.5 46 -19.4 -2.9
03:20 1005 29.68 834 24.63 -9.7 14.6 46 -19.4 -2.9
03:25 1005 29.68 834 24.63 -9.9 14.2 45 -19.8 -3.7
03:30 1005 29.68 834 24.63 -10.2 13.7 45 -19.8 -3.7
03:35 1005 29.68 834 24.63 -10.3 13.5 46 -19.8 -3.7
03:40 1005 29.68 834 24.63 -10.3 13.4 46 -19.8 -3.7
03:45 1005 29.68 834 24.63 -10.4 13.3 47 -19.8 -3.6
03:50 1005 29.68 834 24.63 -10.4 13.3 45 -20.1 -4.1
03:55 1005 29.68 834 24.63 -10.5 13 46 -20.1 -4.1
04:00 1005 29.68 834 24.63 -10.6 12.9 45 -20.3 -4.5
04:05 1005 29.68 834 24.63 -10.6 12.9 45 -20.5 -4.9
04:10 1005 29.68 834 24.63 -10.5 13.1 45 -20.3 -4.6
04:15 1005 29.68 834 24.63 -10.4 13.3 43 -20.7 -5.3
04:20 1005 29.68 835 24.66 -10.2 13.6 42 -20.9 -5.6
04:25 1005 29.68 835 24.66 -10 14 42 -20.7 -5.3
04:30 1005 29.68 835 24.66 -10.1 13.9 42 -20.7 -5.3
04:35 1005 29.68 835 24.66 -10 14.1 42 -20.5 -4.9
04:40 1005 29.68 835 24.66 -10 14 42 -20.6 -5.1
04:45 1006 29.71 835 24.66 -10.2 13.7 43 -20.5 -5
04:50 1006 29.71 835 24.66 -10.2 13.6 43 -20.6 -5.2
04:55 1006 29.71 835 24.66 -10.3 13.4 43 -20.6 -5
05:00 1006 29.71 835 24.66 -10.3 13.4 43 -20.7 -5.2
05:05 1006 29.71 835 24.66 -10.4 13.4 43 -20.8 -5.4
05:10 1006 29.71 835 24.66 -10.2 13.7 43 -20.6 -5.1
05:15 1006 29.71 835 24.66 -10.1 13.8 42 -20.8 -5.4
05:20 1006 29.71 835 24.66 -10 14.1 41 -20.8 -5.4
05:25 1006 29.71 835 24.66 -10.2 13.7 42 -20.9 -5.6
05:30 1006 29.71 835 24.66 -10.1 13.8 41 -20.9 -5.6
05:35 1006 29.71 835 24.66 -10.1 13.8 42 -20.7 -5.3
05:40 1006 29.71 835 24.66 -10.1 13.8 41 -20.9 -5.6
05:45 1006 29.71 835 24.66 -10.3 13.5 42 -21 -5.7
05:50 1006 29.71 835 24.66 -10.6 13 44 -20.6 -5
05:55 1006 29.71 835 24.66 -10.7 12.7 44 -20.8 -5.5
06:00 1006 29.71 835 24.66 -10.7 12.8 45 -20.5 -5
06:05 1006 29.71 835 24.66 -10.8 12.5 45 -20.7 -5.2
06:10 1006 29.71 835 24.66 -11 12.1 45 -20.9 -5.5
06:15 1006 29.71 835 24.66 -11.2 11.9 44 -21.1 -6.1
06:20 1006 29.71 835 24.66 -11.1 11.9 42 -21.6 -6.9
06:25 1006 29.71 835 24.66 -11.1 12.1 42 -21.5 -6.8
06:30 1006 29.71 835 24.66 -11 12.3 42 -21.6 -6.8
06:35 1006 29.71 835 24.66 -10.9 12.5 40 -21.9 -7.4
06:40 1006 29.71 835 24.66 -10.7 12.8 39 -22.2 -7.9
06:45 1006 29.71 836 24.69 -10.5 13 39 -22 -7.5
06:50 1006 29.71 836 24.69 -10.8 12.6 41 -21.6 -6.9
06:55 1006 29.71 836 24.69 -10.9 12.3 42 -21.5 -6.7
07:00 1006 29.71 836 24.69 -11 12.3 43 -21.3 -6.4
07:05 1006 29.71 836 24.69 -11.1 11.9 44 -21.1 -5.9
07:10 1006 29.71 836 24.69 -11.3 11.6 46 -20.8 -5.5
07:15 1007 29.74 836 24.69 -11.2 11.9 46 -20.7 -5.2
07:20 1007 29.74 836 24.69 -11.2 11.9 46 -20.6 -5.1
07:25 1007 29.74 836 24.69 -11.3 11.7 45 -21.1 -5.9
07:30 1007 29.74 836 24.69 -11.3 11.7 44 -21.2 -6.1
07:35 1007 29.74 836 24.69 -11 12.2 43 -21.2 -6.2
07:40 1007 29.74 836 24.69 -10.7 12.7 43 -21.1 -6
07:45 1007 29.74 836 24.69 -10.2 13.6 40 -21.5 -6.8
07:50 1007 29.74 836 24.69 -9.8 14.4 38 -21.5 -6.7
07:55 1007 29.74 836 24.69 -9.3 15.3 36 -21.7 -7
08:00 1007 29.74 836 24.69 -9 15.7 36 -21.4 -6.6
08:05 1007 29.74 836 24.69 -9.1 15.7 37 -21.2 -6.1
08:10 1007 29.74 836 24.69 -8.9 15.9 37 -21.1 -6
08:15 1007 29.74 836 24.69 -9 15.8 37 -21.1 -6
08:20 1007 29.74 836 24.69 -9 15.9 36 -21.4 -6.5
08:25 1007 29.74 836 24.69 -8.9 16 38 -20.9 -5.6
08:30 1007 29.74 836 24.69 -8.2 17.2 34 -21.7 -7
08:35 1007 29.74 836 24.69 -7.7 18.1 30 -22.4 -8.3
08:40 1007 29.74 836 24.69 -7.3 18.8 29 -22.6 -8.6
08:45 1007 29.74 836 24.69 -7 19.3 29 -22.3 -8.2
08:50 1007 29.74 836 24.69 -6 21.1 29 -21.3 -6.4
08:55 1007 29.74 836 24.69 -5.8 21.5 28 -21.6 -7
09:00 1007 29.74 836 24.69 -6.1 21.1 30 -21 -5.8
09:05 1007 29.74 836 24.69 -6 21.2 31 -20.6 -5.2
09:10 1007 29.74 836 24.69 -5.7 21.8 31 -20.5 -4.8
09:15 1007 29.74 837 24.72 -5.2 22.7 30 -20.3 -4.5
09:20 1007 29.74 837 24.72 -4.9 23.3 30 -19.9 -3.8
09:25 1007 29.74 837 24.72 -4.4 24 27 -20.8 -5.4
09:30 1007 29.74 837 24.72 -4.4 24.1 27 -20.7 -5.3
09:35 1007 29.74 837 24.72 -3.7 25.3 26 -20.6 -5.1
09:40 1007 29.74 837 24.72 -4.5 24 30 -19.7 -3.5
09:45 1007 29.74 837 24.72 -5.5 22 31 -20.3 -4.5
09:50 1007 29.74 837 24.72 -4.8 23.4 29 -20.1 -4.2
09:55 1007 29.74 837 24.72 -4 24.7 28 -20 -4.1
10:00 1007 29.74 837 24.72 -4 24.8 30 -19.1 -2.3
10:05 1007 29.74 837 24.72 -3.7 25.3 32 -18.2 -0.7
10:10 1007 29.74 837 24.72 -3.7 25.4 34 -17.6 0.4
10:15 1007 29.74 837 24.72 -2.7 27.1 34 -16.6 2.1
10:20 1007 29.74 837 24.72 -3 26.6 35 -16.3 2.6
10:25 1008 29.77 837 24.72 -4 24.8 38 -16.5 2.3
10:30 1008 29.77 837 24.72 -2.8 27 33 -16.8 1.8
10:35 1007 29.74 837 24.72 -2.3 27.8 33 -16.6 2
10:40 1007 29.74 837 24.72 -3.4 25.9 35 -16.9 1.6
10:45 1007 29.74 837 24.72 -2.6 27.3 32 -17.3 0.8
10:50 1007 29.74 837 24.72 -1.8 28.7 32 -16.5 2.4
10:55 1007 29.74 837 24.72 -1.4 29.4 31 -16.4 2.5
11:00 1007 29.74 837 24.72 -1.4 29.4 31 -16.3 2.6
11:05 1007 29.74 837 24.72 -1.4 29.4 31 -16.4 2.5
11:10 1007 29.74 837 24.72 -1.3 29.8 32 -16 3.1
11:15 1007 29.74 837 24.72 -2.3 27.9 35 -15.7 3.7
11:20 1007 29.74 837 24.72 -2.6 27.3 37 -15.4 4.3
11:25 1007 29.74 837 24.72 -1.4 29.4 32 -16 3.3
11:30 1007 29.74 837 24.72 -1.1 30.1 34 -15.1 4.8
11:35 1007 29.74 837 24.72 -0.8 30.5 33 -15.2 4.6
11:40 1007 29.74 837 24.72 -0.5 31.2 35 -14.2 6.4
11:45 1007 29.74 837 24.72 -1.1 30 37 -14.1 6.6
11:50 1007 29.74 837 24.72 -1.2 29.8 40 -13.2 8.2
11:55 1007 29.74 837 24.72 -2.3 27.9 42 -13.6 7.6
12:00 1007 29.74 837 24.72 -1.5 29.4 41 -13.2 8.2
12:05 1007 29.74 837 24.72 -2.1 28.2 41 -13.7 7.4
12:10 1007 29.74 837 24.72 -2.2 28 42 -13.4 7.8
12:15 1007 29.74 837 24.72 -1.3 29.7 36 -14.4 6
12:20 1007 29.74 837 24.72 -1.1 30.1 39 -13.2 8.2
12:25 1007 29.74 837 24.72 -0.9 30.4 36 -14.3 6.2
12:30 1007 29.74 836 24.69 -1.4 29.5 37 -14.4 6
12:35 1007 29.74 836 24.69 -1.3 29.6 37 -14.1 6.6
12:40 1007 29.74 836 24.69 -0.9 30.3 36 -14.3 6.2
12:45 1007 29.74 836 24.69 0.2 32.4 33 -14.4 6.1
12:50 1007 29.74 836 24.69 -1 30.3 35 -14.5 6
12:55 1007 29.74 836 24.69 -1.5 29.4 38 -14.1 6.7
13:00 1007 29.74 836 24.69 -0.5 31.1 33 -14.8 5.3
13:05 1007 29.74 836 24.69 -0.6 31 33 -15 4.9
13:10 1007 29.74 836 24.69 -1 30.2 38 -13.6 7.5
13:15 1007 29.74 836 24.69 -1.9 28.5 38 -14.4 6
13:20 1007 29.74 836 24.69 -1.3 29.7 37 -14.2 6.4
13:25 1007 29.74 836 24.69 -0.6 30.9 35 -14.3 6.3
13:30 1007 29.74 836 24.69 -1 30.2 34 -14.9 5.2
13:35 1007 29.74 836 24.69 -0.8 30.6 33 -15.1 4.8
13:40 1007 29.74 836 24.69 0.2 32.3 34 -14.1 6.6
13:45 1007 29.74 836 24.69 -0.5 31.1 33 -14.8 5.3
13:50 1007 29.74 836 24.69 -0.4 31.2 32 -15.1 4.7
13:55 1007 29.74 836 24.69 -0 31.9 31 -15.2 4.6
14:00 1007 29.74 836 24.69 0 32 32 -14.9 5.2
14:05 1006 29.71 836 24.69 0.1 32.2 32 -14.6 5.7
14:10 1006 29.71 836 24.69 0.7 33.3 32 -14.4 6.2
14:15 1006 29.71 836 24.69 -0.4 31.2 34 -14.3 6.2
14:20 1006 29.71 836 24.69 0.1 32.2 32 -14.7 5.5
14:25 1006 29.71 836 24.69 0.8 33.4 32 -14.1 6.5
14:30 1006 29.71 836 24.69 0.5 32.9 32 -14.4 6.1
14:35 1006 29.71 835 24.66 0.7 33.3 33 -13.9 6.9
14:40 1006 29.71 835 24.66 -0.2 31.6 34 -14.4 6.1
14:45 1006 29.71 835 24.66 -0.4 31.3 33 -14.9 5.1
14:50 1006 29.71 835 24.66 0.3 32.6 31 -15 5
14:55 1006 29.71 835 24.66 1.5 34.7 29 -14.7 5.5
15:00 1006 29.71 835 24.66 1.2 34.1 29 -15 5.1
15:05 1006 29.71 835 24.66 0.7 33.2 29 -15.4 4.2
15:10 1006 29.71 835 24.66 0.4 32.7 29 -15.6 3.9
15:15 1006 29.71 835 24.66 0.8 33.5 28 -15.8 3.5
15:20 1006 29.71 835 24.66 1.6 34.9 27 -15.5 4
15:25 1006 29.71 835 24.66 2.8 37 25 -15.4 4.2
15:30 1006 29.71 835 24.66 2.2 36 26 -15.3 4.4
15:35 1006 29.71 835 24.66 0.5 32.9 29 -15.6 3.9
15:40 1006 29.71 835 24.66 1.3 34.3 26 -16.1 3.1
15:45 1006 29.71 835 24.66 1.7 35 29 -14.5 5.9
15:50 1006 29.71 835 24.66 1 33.8 30 -14.8 5.3
15:55 1006 29.71 835 24.66 1.1 33.9 31 -14.2 6.4
16:00 1006 29.71 835 24.66 1.2 34.2 28 -15.6 3.9
16:05 1006 29.71 835 24.66 1.6 34.8 28 -15.1 4.9
16:10 1006 29.71 835 24.66 1.6 34.8 29 -14.8 5.4
16:15 1006 29.71 835 24.66 0.4 32.8 31 -14.7 5.5
16:20 1006 29.71 835 24.66 0.4 32.6 31 -15 5
16:25 1006 29.71 835 24.66 0.3 32.6 32 -14.7 5.5
16:30 1006 29.71 835 24.66 0.5 33 30 -15.2 4.7
16:35 1006 29.71 835 24.66 1.4 34.4 29 -15 5
16:40 1006 29.71 835 24.66 2 35.6 27 -15.1 4.8
16:45 1006 29.71 835 24.66 2.7 36.9 26 -15.2 4.6
16:50 1006 29.71 835 24.66 2.6 36.7 26 -15.2 4.7
16:55 1006 29.71 836 24.69 2.2 36 26 -15.6 4
17:00 1006 29.71 835 24.66 1.8 35.2 26 -15.9 3.4
17:05 1006 29.71 836 24.69 1.3 34.3 26 -16.3 2.6
17:10 1006 29.71 835 24.66 1.4 34.5 26 -16.3 2.7
17:15 1006 29.71 835 24.66 1.7 35.1 24 -16.6 2.1
17:20 1006 29.71 836 24.69 1.4 34.5 25 -16.5 2.3
17:25 1006 29.71 836 24.69 1.1 34.1 26 -16.3 2.7
17:30 1006 29.71 836 24.69 1 33.8 27 -16.1 2.9
17:35 1006 29.71 836 24.69 0.7 33.3 25 -17 1.3
17:40 1006 29.71 836 24.69 0.3 32.5 26 -17.1 1.3
17:45 1006 29.71 836 24.69 0 32 26 -17.5 0.5
17:50 1006 29.71 836 24.69 -0.1 31.7 27 -17.3 0.9
17:55 1007 29.74 836 24.69 -0.3 31.5 27 -17.3 0.8
18:00 1007 29.74 836 24.69 -0.4 31.3 25 -18.4 -1.1
18:05 1007 29.74 836 24.69 -0.4 31.3 26 -17.8 0
18:10 1007 29.74 836 24.69 -0.5 31.2 26 -17.7 0.2
18:15 1007 29.74 836 24.69 -0.5 31 26 -18 -0.5
18:20 1007 29.74 836 24.69 -0.6 30.9 26 -17.9 -0.2
18:25 1007 29.74 836 24.69 -0.7 30.7 26 -17.9 -0.2
18:30 1007 29.74 836 24.69 -0.8 30.6 26 -18 -0.3
18:35 1007 29.74 836 24.69 -0.8 30.5 26 -17.9 -0.2
18:40 1007 29.74 836 24.69 -0.9 30.3 26 -18 -0.4
18:45 1007 29.74 836 24.69 -1 30.2 25 -18.5 -1.3
18:50 1007 29.74 836 24.69 -1 30.1 26 -18.3 -0.9
18:55 1007 29.74 836 24.69 -1.2 29.9 28 -17.5 0.6
19:00 1007 29.74 836 24.69 -1.2 29.8 30 -16.9 1.6
19:05 1007 29.74 836 24.69 -1.3 29.7 31 -16.5 2.3
19:10 1007 29.74 836 24.69 -1.5 29.3 32 -16.2 2.8
19:15 1007 29.74 836 24.69 -1.5 29.3 33 -15.8 3.6
19:20 1007 29.74 836 24.69 -1.6 29.1 34 -15.6 4
19:25 1007 29.74 836 24.69 -1.7 29 35 -15.4 4.4
19:30 1007 29.74 836 24.69 -1.7 28.9 36 -14.9 5.1
19:35 1007 29.74 836 24.69 -1.9 28.7 37 -14.7 5.5
19:40 1007 29.74 836 24.69 -1.9 28.5 37 -14.7 5.5
19:45 1007 29.74 837 24.72 -2 28.4 38 -14.6 5.8
19:50 1007 29.74 837 24.72 -2 28.5 38 -14.5 5.9
19:55 1008 29.77 837 24.72 -2.1 28.3 40 -14 6.8
20:00 1008 29.77 837 24.72 -2.2 28.1 41 -13.7 7.3
20:05 1008 29.77 837 24.72 -2.3 27.8 43 -13.4 7.9
20:10 1008 29.77 837 24.72 -2.6 27.4 44 -13.1 8.3
20:15 1008 29.77 837 24.72 -2.7 27.1 45 -13 8.6
20:20 1008 29.77 837 24.72 -2.8 26.9 46 -12.9 8.8
20:25 1008 29.77 837 24.72 -3 26.6 46 -13 8.6
20:30 1008 29.77 837 24.72 -3.1 26.3 48 -12.8 9
20:35 1008 29.77 837 24.72 -3.3 26.1 48 -12.7 9.1
20:40 1008 29.77 837 24.72 -3.4 25.9 49 -12.7 9.2
20:45 1008 29.77 837 24.72 -3.4 25.8 48 -12.9 8.9
20:50 1008 29.77 837 24.72 -3.6 25.6 49 -12.8 9
20:55 1008 29.77 837 24.72 -3.7 25.4 50 -12.6 9.4
21:00 1008 29.77 837 24.72 -3.8 25.1 51 -12.5 9.5
21:05 1008 29.77 837 24.72 -3.9 25.1 51 -12.6 9.3
21:10 1008 29.77 837 24.72 -4 24.9 52 -12.5 9.5
21:15 1008 29.77 837 24.72 -4 24.8 52 -12.6 9.3
21:20 1008 29.77 837 24.72 -4.1 24.6 52 -12.5 9.5
21:25 1008 29.77 838 24.75 -4.1 24.6 53 -12.2 10
21:30 1008 29.77 838 24.75 -4.2 24.4 54 -12.2 10
21:35 1008 29.77 838 24.75 -4.3 24.3 54 -12.2 10
21:40 1008 29.77 838 24.75 -4.4 24.2 55 -12.1 10.2
21:45 1008 29.77 838 24.75 -4.5 23.9 56 -11.9 10.5
21:50 1008 29.77 838 24.75 -4.6 23.7 57 -11.9 10.6
21:55 1008 29.77 837 24.72 -4.7 23.6 57 -11.8 10.7
22:00 1008 29.77 838 24.75 -4.7 23.5 58 -11.7 10.9
22:05 1008 29.77 838 24.75 -4.8 23.4 58 -11.7 10.9
22:10 1008 29.77 838 24.75 -4.9 23.2 60 -11.5 11.3
22:15 1008 29.77 838 24.75 -5 23.1 60 -11.5 11.3
22:20 1009 29.8 838 24.75 -5 23 61 -11.4 11.5
22:25 1009 29.8 838 24.75 -5.1 22.8 61 -11.5 11.3
22:30 1009 29.8 838 24.75 -5.2 22.7 62 -11.4 11.4
22:35 1009 29.8 838 24.75 -5.3 22.4 63 -11.3 11.7
22:40 1009 29.8 838 24.75 -5.3 22.4 64 -11.2 11.9
22:45 1009 29.8 838 24.75 -5.5 22.1 65 -11.1 12
22:50 1009 29.8 838 24.75 -5.6 22 65 -11.1 12
22:55 1009 29.8 838 24.75 -5.6 21.9 66 -11 12.2
23:00 1009 29.8 838 24.75 -5.7 21.8 66 -11 12.3
23:05 1009 29.8 838 24.75 -5.7 21.8 66 -11 12.2
23:10 1009 29.8 838 24.75 -5.7 21.8 67 -10.9 12.4
23:15 1009 29.8 838 24.75 -5.7 21.7 68 -10.8 12.6
23:20 1009 29.8 838 24.75 -5.8 21.6 68 -10.8 12.6
23:25 1009 29.8 838 24.75 -5.8 21.5 69 -10.7 12.7
23:30 1009 29.8 838 24.75 -5.9 21.3 69 -10.7 12.8
23:35 1009 29.8 838 24.75 -6 21.3 69 -10.7 12.7
23:40 1009 29.8 838 24.75 -6 21.2 70 -10.7 12.7
23:45 1009 29.8 838 24.75 -6.1 21.1 69 -10.8 12.6
23:50 1009 29.8 838 24.75 -6.1 21 70 -10.6 12.8
23:55 1009 29.8 838 24.75 -6.2 20.9 71 -10.6 12.9
24:00 1009 29.8 838 24.75 -6.2 20.8 70 -10.8 12.6